Time;durP1;ratioP1;P1;durP2;ratioP2;P2;SDS_P1;SDS_P2;PMS_P1;PMS_P2;Temp;Humidity;BMP_temperature;BMP_pressure;BME280_temperature;BME280_humidity;BME280_pressure;Samples;Min_cycle;Max_cycle;Signal;HPM_P1;HPM_P2
2022/01/21 00:01:14;;;;;;;51.90;23.33;;;;;;;0.37;94.31;99397.00;5067926;28;20303;-71
2022/01/21 00:03:41;;;;;;;40.00;19.60;;;;;;;0.38;94.69;99391.13;5066292;28;20204;-71
2022/01/21 00:06:09;;;;;;;34.07;18.10;;;;;;;0.44;94.57;99389.50;5066967;28;20215;-71
2022/01/21 00:08:37;;;;;;;27.27;16.17;;;;;;;0.44;94.85;99388.66;5068174;28;20208;-71
2022/01/21 00:11:06;;;;;;;28.10;14.97;;;;;;;0.44;95.03;99396.22;5067535;28;20223;-71
2022/01/21 00:13:36;;;;;;;29.00;15.63;;;;;;;0.26;94.93;99369.13;5066561;28;20628;-71
2022/01/21 00:16:05;;;;;;;28.17;15.63;;;;;;;0.50;94.57;99406.38;5068086;28;20630;-71
2022/01/21 00:18:32;;;;;;;25.13;15.67;;;;;;;0.52;94.55;99403.03;5067315;28;20196;-71
2022/01/21 00:31:58;;;;;;;45.03;19.17;;;;;;;0.57;94.42;99419.88;5069287;28;20737;-71
2022/01/21 00:34:25;;;;;;;50.53;21.27;;;;;;;0.50;94.74;99421.50;5067319;28;20271;-70
2022/01/21 00:36:52;;;;;;;47.87;20.10;;;;;;;0.49;95.11;99418.13;5068711;28;20274;-71
2022/01/21 00:39:23;;;;;;;45.97;21.70;;;;;;;0.48;94.74;99418.97;5068825;28;20283;-71
2022/01/21 00:41:59;;;;;;;43.80;20.90;;;;;;;0.47;94.58;99408.88;5069491;28;20309;-71
2022/01/21 00:44:27;;;;;;;41.73;21.40;;;;;;;0.46;94.60;99402.97;5065077;28;20232;-71
2022/01/21 00:46:54;;;;;;;41.83;20.37;;;;;;;0.45;94.51;99400.44;5069359;28;20208;-71
2022/01/21 00:49:20;;;;;;;29.33;18.50;;;;;;;0.44;94.27;99381.94;5068470;28;20196;-71
2022/01/21 00:51:48;;;;;;;31.43;17.97;;;;;;;0.44;94.32;99389.50;5067489;28;20204;-71
2022/01/21 00:54:15;;;;;;;32.53;18.80;;;;;;;0.46;94.14;99392.03;5068980;28;20196;-71
2022/01/21 00:56:42;;;;;;;29.07;17.13;;;;;;;0.49;93.89;99381.97;5067961;28;20299;-71
2022/01/21 00:59:10;;;;;;;32.00;17.27;;;;;;;0.46;93.68;99381.94;5068362;28;20832;-71
2022/01/21 01:01:37;;;;;;;34.33;17.07;;;;;;;0.45;93.88;99380.28;5065402;28;20664;-70
2022/01/21 01:04:05;;;;;;;26.57;16.63;;;;;;;0.38;94.22;99373.47;5068336;28;20215;-71
2022/01/21 01:06:32;;;;;;;23.93;15.83;;;;;;;0.28;94.70;99382.63;5063030;28;20216;-71
2022/01/21 01:08:59;;;;;;;28.60;15.87;;;;;;;0.31;94.71;99381.81;5068438;28;20196;-71
2022/01/21 01:11:33;;;;;;;26.77;16.53;;;;;;;0.31;94.73;99376.75;5068800;28;20350;-71
2022/01/21 01:22:16;;;;;;;26.77;16.00;;;;;;;0.18;97.56;99353.09;5068308;28;20245;-71
2022/01/21 01:27:40;;;;;;;27.37;16.00;;;;;;;0.19;98.38;99361.53;5066112;28;20280;-71
2022/01/21 01:30:10;;;;;;;23.57;14.67;;;;;;;0.12;99.08;99379.91;5064979;28;20208;-70
2022/01/21 01:32:39;;;;;;;23.00;15.27;;;;;;;-0.01;100.00;99362.16;5069303;28;20204;-71
2022/01/21 01:35:07;;;;;;;22.97;14.33;;;;;;;0.05;100.00;99383.19;5067930;28;20200;-71
2022/01/21 01:37:48;;;;;;;19.23;13.17;;;;;;;-0.04;100.00;99399.91;5069239;28;20231;-71
2022/01/21 01:40:22;;;;;;;19.57;12.37;;;;;;;-0.18;100.00;99401.41;5068289;28;20196;-70
2022/01/21 01:49:22;;;;;;;19.43;14.23;;;;;;;-0.12;100.00;99406.50;5069225;28;20196;-71
2022/01/21 01:51:13;;;;;;;13.93;11.50;;;;;;;0.13;100.00;99386.66;5069107;28;20253;-71
2022/01/21 01:53:43;;;;;;;15.03;11.73;;;;;;;0.25;100.00;99384.25;5069349;28;20204;-71
2022/01/21 01:56:14;;;;;;;19.87;11.43;;;;;;;0.30;100.00;99380.94;5067938;28;20667;-71
2022/01/21 01:58:43;;;;;;;16.90;10.93;;;;;;;0.37;100.00;99384.38;5068085;28;20233;-71
2022/01/21 02:01:11;;;;;;;13.07;10.30;;;;;;;0.38;100.00;99388.59;5070241;28;20261;-71
2022/01/21 02:03:39;;;;;;;13.97;10.33;;;;;;;0.39;100.00;99367.59;5072537;28;20208;-71
2022/01/21 02:06:06;;;;;;;12.07;10.10;;;;;;;0.48;100.00;99377.78;5071838;28;20219;-71
2022/01/21 02:08:34;;;;;;;12.47;10.20;;;;;;;0.51;100.00;99380.34;5072013;28;20192;-71
2022/01/21 02:11:01;;;;;;;12.70;10.73;;;;;;;0.48;100.00;99375.25;5071686;28;20206;-71
2022/01/21 02:13:31;;;;;;;21.00;12.20;;;;;;;0.52;100.00;99387.03;5071436;28;20764;-71
2022/01/21 02:16:06;;;;;;;17.53;11.50;;;;;;;0.52;100.00;99384.53;5070365;28;20246;-71
2022/01/21 02:21:35;;;;;;;22.23;11.60;;;;;;;0.62;100.00;99423.28;5069376;28;20200;-71
2022/01/21 02:24:06;;;;;;;16.70;11.17;;;;;;;0.53;100.00;99408.91;5070396;28;20204;-71
2022/01/21 02:26:33;;;;;;;21.90;12.13;;;;;;;0.50;100.00;99418.97;5069849;28;20208;-71
2022/01/21 02:29:01;;;;;;;15.70;11.47;;;;;;;0.48;100.00;99413.94;5071113;28;20390;-71
2022/01/21 02:31:29;;;;;;;17.83;11.90;;;;;;;0.52;100.00;99409.75;5072006;28;20207;-72
2022/01/21 02:33:56;;;;;;;16.50;11.43;;;;;;;0.51;100.00;99406.41;5071366;28;20283;-72
2022/01/21 02:36:25;;;;;;;24.20;12.87;;;;;;;0.39;100.00;99400.34;5071701;28;20295;-71
2022/01/21 02:38:52;;;;;;;23.13;13.13;;;;;;;0.51;100.00;99428.25;5071923;28;20283;-72
2022/01/21 02:41:19;;;;;;;24.17;13.60;;;;;;;0.50;100.00;99429.91;5070959;28;20200;-71
2022/01/21 02:43:46;;;;;;;31.80;13.60;;;;;;;0.54;100.00;99425.75;5071438;28;20230;-72
2022/01/21 02:46:15;;;;;;;23.70;12.43;;;;;;;0.56;100.00;99423.22;5071222;28;20568;-72
2022/01/21 02:48:42;;;;;;;23.37;13.07;;;;;;;0.59;100.00;99413.16;5071612;28;20291;-71
2022/01/21 02:51:12;;;;;;;24.70;13.83;;;;;;;0.65;100.00;99391.38;5069893;28;20203;-71
2022/01/21 02:56:27;;;;;;;21.67;13.23;;;;;;;0.62;100.00;99387.97;5061406;28;20308;-71
2022/01/21 02:58:54;;;;;;;29.13;14.73;;;;;;;0.67;100.00;99387.22;5070273;28;20204;-72
2022/01/21 03:01:21;;;;;;;26.40;15.30;;;;;;;0.66;100.00;99385.50;5070763;28;20295;-71
2022/01/21 03:03:49;;;;;;;31.23;15.70;;;;;;;0.70;100.00;99388.91;5069251;28;20298;-71
2022/01/21 03:06:17;;;;;;;28.63;16.60;;;;;;;0.69;100.00;99385.53;5070394;28;20243;-71
2022/01/21 03:08:47;;;;;;;33.10;15.60;;;;;;;0.67;100.00;99372.06;5070230;28;20278;-71
2022/01/21 03:11:14;;;;;;;23.47;15.10;;;;;;;0.77;100.00;99376.38;5070778;28;20196;-71
2022/01/21 03:13:42;;;;;;;32.37;15.60;;;;;;;0.78;100.00;99375.50;5071231;28;20249;-71
2022/01/21 03:16:09;;;;;;;33.73;16.50;;;;;;;0.78;100.00;99365.44;5068658;28;20188;-72
2022/01/21 03:18:36;;;;;;;27.93;16.23;;;;;;;0.80;100.00;99362.94;5071630;28;20287;-71
2022/01/21 03:21:03;;;;;;;29.30;16.20;;;;;;;0.84;100.00;99372.22;5067603;28;20196;-71
2022/01/21 03:23:30;;;;;;;31.93;17.83;;;;;;;0.86;100.00;99373.91;5070856;28;20287;-72
2022/01/21 03:25:58;;;;;;;30.50;16.50;;;;;;;0.90;100.00;99387.41;5070922;28;20223;-71
2022/01/21 03:28:25;;;;;;;23.87;16.13;;;;;;;0.87;100.00;99395.78;5070389;28;20762;-71
2022/01/21 03:30:55;;;;;;;44.70;21.07;;;;;;;0.81;100.00;99389.84;5070666;28;20192;-71
2022/01/21 03:33:23;;;;;;;45.53;24.13;;;;;;;0.73;100.00;99382.22;5070031;28;20212;-71
2022/01/21 03:35:53;;;;;;;46.57;22.97;;;;;;;0.76;100.00;99382.25;5066593;28;20203;-71
2022/01/21 03:38:21;;;;;;;48.30;23.70;;;;;;;0.82;100.00;99382.28;5069403;28;20679;-72
2022/01/21 03:40:48;;;;;;;36.73;21.77;;;;;;;0.82;100.00;99379.75;5071121;28;20192;-71
2022/01/21 03:43:16;;;;;;;42.77;21.67;;;;;;;0.84;100.00;99377.25;5069996;28;20203;-71
2022/01/21 03:45:43;;;;;;;44.43;22.63;;;;;;;0.89;100.00;99379.00;5070654;28;20218;-72
2022/01/21 03:48:10;;;;;;;47.17;23.00;;;;;;;0.93;100.00;99385.75;5069722;28;20287;-72
2022/01/21 03:50:37;;;;;;;29.13;20.33;;;;;;;1.01;100.00;99399.25;5070432;28;20291;-72
2022/01/21 03:53:05;;;;;;;38.13;20.90;;;;;;;1.07;100.00;99395.13;5068893;28;20294;-71
2022/01/21 03:55:34;;;;;;;35.43;20.40;;;;;;;1.13;100.00;99392.63;5069278;28;20275;-71
2022/01/21 03:58:02;;;;;;;36.10;20.70;;;;;;;1.17;100.00;99396.84;5069836;28;20243;-71
2022/01/21 04:00:32;;;;;;;35.50;19.90;;;;;;;1.26;100.00;99379.25;5069595;28;20290;-71
2022/01/21 04:02:59;;;;;;;37.30;19.70;;;;;;;1.31;100.00;99367.50;5069240;28;20200;-70
2022/01/21 04:05:28;;;;;;;38.87;19.80;;;;;;;1.33;100.00;99370.88;5069443;28;20255;-71
2022/01/21 04:07:55;;;;;;;37.73;19.17;;;;;;;1.40;100.00;99377.66;5069675;28;20287;-72
2022/01/21 04:10:22;;;;;;;31.10;18.43;;;;;;;1.45;99.45;99381.91;5068843;28;20287;-71
2022/01/21 04:12:49;;;;;;;28.00;17.17;;;;;;;1.53;98.94;99384.47;5069738;28;20195;-72
2022/01/21 04:15:17;;;;;;;33.60;18.60;;;;;;;1.60;98.53;99376.09;5069033;28;20287;-71
2022/01/21 04:17:45;;;;;;;29.33;16.57;;;;;;;1.66;98.38;99386.22;5068930;28;20204;-71
2022/01/21 04:20:14;;;;;;;32.03;17.93;;;;;;;1.71;98.29;99378.69;5069636;28;20572;-71
2022/01/21 04:22:41;;;;;;;31.07;18.30;;;;;;;1.59;98.10;99349.97;5066488;28;20283;-71
2022/01/21 04:25:09;;;;;;;30.97;18.40;;;;;;;1.70;97.91;99356.75;5068574;28;20278;-71
2022/01/21 04:27:36;;;;;;;55.70;17.57;;;;;;;1.81;97.67;99371.13;5067904;28;20313;-72
2022/01/21 04:30:06;;;;;;;37.30;19.33;;;;;;;1.76;97.91;99349.19;5067299;28;20223;-71
2022/01/21 04:32:33;;;;;;;34.77;18.13;;;;;;;1.89;97.77;99364.44;5066455;28;20299;-71
2022/01/21 04:35:01;;;;;;;48.73;20.37;;;;;;;1.86;98.25;99354.31;5067944;28;20207;-72
2022/01/21 04:37:28;;;;;;;34.43;22.20;;;;;;;1.84;98.88;99360.19;5067263;28;20291;-71
2022/01/21 04:40:00;;;;;;;38.17;22.17;;;;;;;1.87;99.44;99371.19;5068172;28;20206;-72
2022/01/21 04:47:56;;;;;;;36.90;21.03;;;;;;;1.75;100.00;99387.94;5068981;28;20340;-72
2022/01/21 04:50:26;;;;;;;38.93;21.10;;;;;;;1.70;100.00;99372.78;5068826;28;20238;-71
2022/01/21 04:52:53;;;;;;;38.00;20.13;;;;;;;1.76;100.00;99385.44;5068522;28;20192;-71
2022/01/21 04:55:20;;;;;;;38.13;21.20;;;;;;;1.73;100.00;99395.53;5068317;28;20711;-70
2022/01/21 04:57:47;;;;;;;39.00;21.63;;;;;;;1.67;100.00;99403.06;5069124;28;20291;-72
2022/01/21 05:00:15;;;;;;;40.40;23.43;;;;;;;1.67;100.00;99395.50;5069054;28;20204;-72
2022/01/21 05:02:42;;;;;;;43.20;20.93;;;;;;;1.70;100.00;99413.19;5068910;28;20295;-71
2022/01/21 05:05:09;;;;;;;38.00;19.70;;;;;;;1.73;100.00;99413.22;5067896;28;20192;-72
2022/01/21 05:07:40;;;;;;;34.50;19.73;;;;;;;1.79;100.00;99418.28;5069275;28;20592;-71
2022/01/21 05:10:08;;;;;;;38.57;21.50;;;;;;;1.80;100.00;99430.09;5068915;28;20210;-71
2022/01/21 05:12:35;;;;;;;38.00;21.53;;;;;;;1.74;100.00;99436.81;5069138;28;20579;-71
2022/01/21 05:15:17;;;;;;;42.80;22.47;;;;;;;1.79;100.00;99442.72;5066063;28;20196;-72
2022/01/21 05:17:48;;;;;;;32.83;20.83;;;;;;;1.77;100.00;99441.88;5067842;28;20203;-71
2022/01/21 05:20:16;;;;;;;42.90;20.57;;;;;;;1.81;100.00;99452.00;5068380;28;20207;-71
2022/01/21 05:22:44;;;;;;;38.23;20.00;;;;;;;1.84;100.00;99449.47;5068537;28;20715;-73
2022/01/21 05:25:16;;;;;;;32.20;18.40;;;;;;;1.90;100.00;99451.22;5068656;28;20292;-72
2022/01/21 05:27:46;;;;;;;28.77;17.47;;;;;;;1.89;100.00;99460.47;5068778;28;20215;-71
2022/01/21 05:30:13;;;;;;;31.53;19.07;;;;;;;1.91;100.00;99458.78;5068599;28;20204;-71
2022/01/21 05:32:40;;;;;;;28.13;19.00;;;;;;;1.90;100.00;99451.22;5072745;28;20291;-70
2022/01/21 05:35:08;;;;;;;36.03;20.40;;;;;;;1.99;100.00;99467.28;5072555;28;20200;-72
2022/01/21 05:37:35;;;;;;;38.83;18.53;;;;;;;2.07;100.00;99480.78;5066920;28;20205;-71
2022/01/21 05:40:04;;;;;;;34.30;19.07;;;;;;;1.99;100.00;99474.84;5072918;28;20279;-71
2022/01/21 05:42:33;;;;;;;33.43;20.77;;;;;;;2.03;100.00;99488.38;5071524;28;20192;-72
2022/01/21 05:47:48;;;;;;;34.63;18.90;;;;;;;2.06;100.00;99503.53;5072221;28;20222;-75
2022/01/21 05:50:15;;;;;;;29.67;19.90;;;;;;;2.09;100.00;99511.16;5065437;28;20199;-73
2022/01/21 05:52:45;;;;;;;34.07;21.20;;;;;;;2.13;100.00;99512.00;5065588;28;20196;-74
2022/01/21 05:55:14;;;;;;;38.47;20.53;;;;;;;2.19;100.00;99522.16;5065307;28;20622;-74
2022/01/21 05:57:41;;;;;;;42.90;21.23;;;;;;;2.19;100.00;99523.00;5069024;28;20662;-74
2022/01/21 06:00:11;;;;;;;36.80;21.67;;;;;;;2.25;100.00;99534.81;5068277;28;20751;-73
2022/01/21 06:02:38;;;;;;;52.87;26.13;;;;;;;2.24;100.00;99533.13;5055211;28;20200;-73
2022/01/21 06:05:06;;;;;;;35.40;19.80;;;;;;;2.19;100.00;99533.13;5073343;28;20732;-73
2022/01/21 06:07:34;;;;;;;38.10;19.03;;;;;;;2.24;100.00;99539.03;5074930;28;20215;-74
2022/01/21 06:10:01;;;;;;;28.43;18.00;;;;;;;2.24;100.00;99538.19;5074657;28;20298;-73
2022/01/21 06:12:30;;;;;;;27.93;17.97;;;;;;;2.24;100.00;99546.63;5074919;28;20239;-75
2022/01/21 06:14:56;;;;;;;40.10;20.77;;;;;;;2.26;100.00;99550.03;5074721;28;20644;-73
2022/01/21 06:17:23;;;;;;;33.60;19.93;;;;;;;2.30;100.00;99553.38;5074830;28;20668;-74
2022/01/21 06:19:50;;;;;;;37.67;21.30;;;;;;;2.39;100.00;99559.34;5074685;28;20747;-74
2022/01/21 06:22:17;;;;;;;55.93;25.17;;;;;;;2.39;100.00;99558.53;5074557;28;20282;-73
2022/01/21 06:24:45;;;;;;;27.83;18.23;;;;;;;2.51;100.00;99573.75;5074496;28;20235;-73
2022/01/21 06:27:12;;;;;;;27.07;18.00;;;;;;;2.50;100.00;99567.00;5074349;28;20219;-75
2022/01/21 06:29:40;;;;;;;47.00;23.20;;;;;;;2.46;100.00;99578.78;5074628;28;20200;-73
2022/01/21 06:32:08;;;;;;;39.60;20.50;;;;;;;2.42;100.00;99568.66;5074291;28;20246;-73
2022/01/21 06:34:35;;;;;;;73.07;30.97;;;;;;;2.49;100.00;99583.00;5074131;28;20206;-73
2022/01/21 06:37:02;;;;;;;37.00;20.20;;;;;;;2.58;100.00;99590.66;5074219;28;20207;-76
2022/01/21 06:39:28;;;;;;;51.73;25.20;;;;;;;2.61;100.00;99595.72;5074175;28;20657;-74
2022/01/21 06:41:55;;;;;;;27.03;17.77;;;;;;;2.68;100.00;99597.47;5073151;28;20196;-74
2022/01/21 06:44:22;;;;;;;24.70;15.83;;;;;;;2.72;100.00;99600.81;5073595;28;20309;-74
2022/01/21 06:46:51;;;;;;;38.07;17.93;;;;;;;2.71;100.00;99607.59;5073976;28;20303;-74
2022/01/21 06:49:17;;;;;;;55.20;24.97;;;;;;;2.75;100.00;99611.81;5074083;28;20292;-73
2022/01/21 06:51:44;;;;;;;60.63;26.73;;;;;;;2.66;100.00;99604.19;5074016;28;20568;-74
2022/01/21 06:54:12;;;;;;;49.17;24.70;;;;;;;2.68;100.00;99607.59;5072659;28;20206;-74
2022/01/21 06:56:39;;;;;;;45.83;24.20;;;;;;;2.65;100.00;99617.66;5072961;28;20257;-74
2022/01/21 06:59:06;;;;;;;34.17;22.17;;;;;;;2.64;100.00;99611.78;5072504;28;20287;-74
2022/01/21 07:01:33;;;;;;;32.83;18.93;;;;;;;2.58;100.00;99618.50;5072726;28;20279;-73
2022/01/21 07:04:02;;;;;;;19.63;12.10;;;;;;;2.62;100.00;99627.78;5066960;28;20207;-74
2022/01/21 07:06:28;;;;;;;12.47;10.67;;;;;;;2.62;100.00;99628.63;5071116;28;20254;-73
2022/01/21 07:08:55;;;;;;;15.73;11.87;;;;;;;2.63;100.00;99629.47;5070710;28;20282;-60
2022/01/21 07:11:22;;;;;;;14.30;10.87;;;;;;;2.53;100.00;99622.66;5065417;28;20219;-62
2022/01/21 07:13:49;;;;;;;8.57;7.20;;;;;;;2.66;100.00;99642.16;5069095;28;20357;-60
2022/01/21 07:16:16;;;;;;;9.23;8.27;;;;;;;2.73;100.00;99651.47;5066941;28;20664;-60
2022/01/21 07:18:43;;;;;;;10.70;7.20;;;;;;;2.74;100.00;99657.38;5066344;28;20283;-60
2022/01/21 07:21:12;;;;;;;13.70;7.90;;;;;;;2.73;100.00;99664.13;5067763;28;20231;-60
2022/01/21 07:23:38;;;;;;;8.07;7.27;;;;;;;2.86;100.00;99683.59;5068324;28;20294;-73
2022/01/21 07:26:05;;;;;;;9.67;5.87;;;;;;;2.90;100.00;99677.72;5068574;28;20204;-72
2022/01/21 07:28:33;;;;;;;6.93;6.33;;;;;;;2.97;100.00;99684.50;5069354;28;20199;-72
2022/01/21 07:31:00;;;;;;;7.07;5.90;;;;;;;2.95;100.00;99683.66;5070616;28;20203;-71
2022/01/21 07:33:27;;;;;;;47.50;22.07;;;;;;;2.89;100.00;99662.50;5072294;28;20779;-72
2022/01/21 07:35:54;;;;;;;15.37;11.33;;;;;;;3.02;100.00;99680.31;5069368;28;20279;-73
2022/01/21 07:38:23;;;;;;;17.87;13.87;;;;;;;2.92;100.00;99673.50;5067278;28;20211;-71
2022/01/21 07:40:50;;;;;;;22.53;13.83;;;;;;;2.97;100.00;99676.88;5066558;28;20200;-70
2022/01/21 07:43:17;;;;;;;24.57;16.37;;;;;;;2.98;100.00;99678.59;5066250;28;20200;-71
2022/01/21 07:45:44;;;;;;;30.03;17.53;;;;;;;2.93;100.00;99669.28;5069958;28;20291;-71
2022/01/21 07:48:11;;;;;;;31.30;21.57;;;;;;;2.88;100.00;99671.78;5067084;28;20212;-74
2022/01/21 07:50:39;;;;;;;25.10;16.73;;;;;;;2.79;100.00;99674.28;5069069;28;20204;-73
2022/01/21 07:53:06;;;;;;;17.60;11.20;;;;;;;2.80;100.00;99691.16;5067941;28;20207;-73
2022/01/21 07:55:35;;;;;;;7.10;6.53;;;;;;;2.73;100.00;99686.91;5067675;28;20286;-73
2022/01/21 07:58:03;;;;;;;8.63;7.93;;;;;;;2.70;100.00;99688.56;5069721;28;20212;-72
2022/01/21 08:00:30;;;;;;;7.23;6.63;;;;;;;2.73;100.00;99686.91;5068936;28;20200;-74
2022/01/21 08:02:57;;;;;;;7.50;6.80;;;;;;;2.65;100.00;99688.53;5068030;28;20218;-75
2022/01/21 08:05:28;;;;;;;6.40;6.00;;;;;;;2.63;100.00;99686.00;5061623;28;20284;-75
2022/01/21 08:07:55;;;;;;;7.03;6.63;;;;;;;2.67;100.00;99684.34;5069766;28;20684;-74
2022/01/21 08:10:22;;;;;;;63.57;29.20;;;;;;;2.68;100.00;99687.72;5068250;28;20209;-73
2022/01/21 08:12:50;;;;;;;24.23;12.37;;;;;;;2.75;100.00;99695.34;5068636;28;20283;-73
2022/01/21 08:15:17;;;;;;;16.27;10.23;;;;;;;2.85;100.00;99697.09;5063362;28;20284;-73
2022/01/21 08:17:44;;;;;;;8.47;7.77;;;;;;;2.84;100.00;99695.41;5068141;28;20206;-74
2022/01/21 08:20:11;;;;;;;3.40;3.10;;;;;;;2.96;100.00;99700.53;5064887;28;20291;-74
2022/01/21 08:22:39;;;;;;;2.40;2.20;;;;;;;3.03;100.00;99699.75;5067778;28;20318;-74
2022/01/21 08:25:08;;;;;;;2.27;2.17;;;;;;;3.07;100.00;99716.63;5068703;28;20237;-72
2022/01/21 08:27:37;;;;;;;2.73;1.87;;;;;;;3.13;100.00;99718.34;5071256;28;20283;-74
2022/01/21 08:30:08;;;;;;;1.97;1.87;;;;;;;3.14;100.00;99725.94;5071113;28;20743;-72
2022/01/21 08:32:36;;;;;;;2.10;2.00;;;;;;;3.21;100.00;99726.81;5068170;28;20659;-72
2022/01/21 08:35:03;;;;;;;1.60;1.60;;;;;;;3.24;100.00;99728.50;5070308;28;20261;-72
2022/01/21 08:37:30;;;;;;;9.83;2.13;;;;;;;3.25;100.00;99737.81;5069991;28;20204;-72
2022/01/21 08:39:57;;;;;;;2.10;2.00;;;;;;;3.32;100.00;99744.59;5067424;28;20306;-72
2022/01/21 08:42:24;;;;;;;3.90;1.97;;;;;;;3.30;100.00;99757.25;5064691;28;20856;-72
2022/01/21 08:44:51;;;;;;;3.10;2.80;;;;;;;3.33;100.00;99756.44;5068563;28;20318;-71
2022/01/21 08:47:21;;;;;;;4.87;4.43;;;;;;;3.36;100.00;99761.53;5066687;28;20631;-72
2022/01/21 08:49:49;;;;;;;5.37;2.80;;;;;;;3.32;100.00;99762.34;5069282;28;20199;-72
2022/01/21 08:52:20;;;;;;;4.07;2.23;;;;;;;3.34;100.00;99763.19;5067089;28;20290;-73
2022/01/21 08:54:48;;;;;;;3.60;2.30;;;;;;;3.40;100.00;99763.22;5064149;28;20196;-73
2022/01/21 08:57:15;;;;;;;2.37;2.27;;;;;;;3.38;100.00;99759.84;5060132;28;20292;-73
2022/01/21 08:59:42;;;;;;;3.10;2.90;;;;;;;3.28;100.00;99747.97;5060314;28;20199;-73
2022/01/21 09:02:09;;;;;;;2.37;2.23;;;;;;;3.40;100.00;99779.25;5066346;28;20203;-74
2022/01/21 09:04:38;;;;;;;2.40;2.20;;;;;;;3.35;100.00;99775.03;5062550;28;20250;-71
2022/01/21 09:07:05;;;;;;;7.67;5.03;;;;;;;3.22;100.00;99783.41;5065850;28;20315;-73
2022/01/21 09:09:32;;;;;;;6.37;5.77;;;;;;;3.16;100.00;99780.00;5066005;28;20199;-74
2022/01/21 09:12:00;;;;;;;2.67;2.30;;;;;;;3.16;100.00;99785.06;5070360;28;20210;-74
2022/01/21 09:14:28;;;;;;;1.93;1.83;;;;;;;3.21;100.00;99784.22;5070211;28;20257;-74
2022/01/21 09:16:56;;;;;;;2.00;1.90;;;;;;;3.27;100.00;99784.25;5069776;28;20278;-73
2022/01/21 09:19:23;;;;;;;1.40;1.40;;;;;;;3.33;100.00;99777.53;5068821;28;20215;-76
2022/01/21 09:21:52;;;;;;;1.87;1.77;;;;;;;3.36;100.00;99771.66;5069474;28;20200;-75
2022/01/21 09:24:20;;;;;;;1.70;1.60;;;;;;;3.47;100.00;99764.94;5068830;28;20196;-75
2022/01/21 09:26:48;;;;;;;1.40;1.40;;;;;;;3.58;100.00;99763.31;5070029;28;20650;-73
2022/01/21 09:29:17;;;;;;;1.43;1.40;;;;;;;3.63;100.00;99759.09;5069387;28;20265;-71
2022/01/21 09:31:44;;;;;;;2.30;2.17;;;;;;;3.68;100.00;99754.91;5065207;28;20664;-74
2022/01/21 09:34:11;;;;;;;2.50;2.33;;;;;;;3.65;100.00;99754.88;5068975;28;20382;-73
2022/01/21 09:36:38;;;;;;;1.67;1.47;;;;;;;3.71;100.00;99759.97;5062120;28;20585;-74
2022/01/21 09:39:07;;;;;;;1.80;1.70;;;;;;;3.75;100.00;99756.56;5070228;28;20620;-73
2022/01/21 09:41:35;;;;;;;4.83;2.37;;;;;;;3.75;100.00;99761.66;5069001;28;20208;-73
2022/01/21 09:44:04;;;;;;;2.90;2.30;;;;;;;3.69;100.00;99733.75;5067458;28;20696;-75
2022/01/21 09:46:35;;;;;;;2.43;2.33;;;;;;;3.83;100.00;99744.78;5063461;28;20234;-72
2022/01/21 09:49:21;;;;;;;2.00;1.90;;;;;;;3.89;100.00;99744.78;5067361;28;20224;-76
2022/01/21 09:51:50;;;;;;;1.23;1.23;;;;;;;3.86;100.00;99734.66;5066775;28;20237;-76
2022/01/21 09:54:18;;;;;;;1.70;1.60;;;;;;;3.89;100.00;99732.13;5067186;28;20580;-75
2022/01/21 09:56:47;;;;;;;3.70;1.67;;;;;;;3.89;100.00;99744.78;5067027;28;20196;-76
2022/01/21 09:59:17;;;;;;;1.30;1.30;;;;;;;3.91;100.00;99730.41;5060390;28;20250;-76
2022/01/21 10:01:49;;;;;;;1.73;1.63;;;;;;;3.89;100.00;99734.66;5062643;28;20235;-77
2022/01/21 10:04:18;;;;;;;2.10;2.00;;;;;;;3.90;100.00;99726.22;5065754;28;20266;-77
2022/01/21 10:06:46;;;;;;;1.67;1.60;;;;;;;3.94;100.00;99722.81;5064207;28;20206;-76
2022/01/21 10:09:16;;;;;;;2.27;2.17;;;;;;;3.95;98.10;99719.44;5066755;28;20704;-77
2022/01/21 10:11:48;;;;;;;2.07;1.97;;;;;;;3.95;99.02;99719.44;5067856;28;20584;-76
2022/01/21 10:14:17;;;;;;;1.63;1.40;;;;;;;3.91;98.14;99717.72;5066865;28;20207;-76
2022/01/21 10:16:46;;;;;;;2.07;1.97;;;;;;;3.97;98.82;99720.31;5069227;28;20278;-77
2022/01/21 10:19:13;;;;;;;1.50;1.33;;;;;;;3.91;95.85;99714.38;5068843;28;20702;-74
2022/01/21 10:21:44;;;;;;;2.87;2.77;;;;;;;3.84;95.70;99736.34;5070429;28;20610;-75
2022/01/21 10:24:13;;;;;;;2.23;2.13;;;;;;;3.85;95.64;99722.78;5070810;28;20207;-76
2022/01/21 10:26:51;;;;;;;1.93;1.83;;;;;;;3.80;95.43;99724.50;5070404;28;20290;-77
2022/01/21 10:29:19;;;;;;;2.33;2.23;;;;;;;3.85;97.09;99727.88;5072169;28;20741;-76
2022/01/21 10:31:54;;;;;;;1.20;1.20;;;;;;;3.84;97.34;99730.41;5070539;28;20196;-76
2022/01/21 10:34:26;;;;;;;1.27;1.27;;;;;;;3.85;95.94;99725.34;5068821;28;20253;-75
2022/01/21 10:36:57;;;;;;;1.40;1.30;;;;;;;3.85;94.03;99722.78;5065758;28;20207;-75
2022/01/21 10:39:32;;;;;;;1.73;1.67;;;;;;;3.82;97.96;99716.88;5068238;28;20287;-75
2022/01/21 10:42:02;;;;;;;2.73;2.30;;;;;;;3.84;98.63;99726.19;5069725;28;20721;-76
2022/01/21 10:44:30;;;;;;;1.87;1.77;;;;;;;3.87;96.69;99725.34;5069039;28;20667;-75
2022/01/21 10:47:07;;;;;;;2.63;2.43;;;;;;;3.84;100.00;99695.78;5068330;28;20265;-75
2022/01/21 10:49:35;;;;;;;4.13;3.80;;;;;;;3.77;100.00;99685.59;5068794;28;20206;-74
2022/01/21 10:52:03;;;;;;;3.97;3.67;;;;;;;3.75;100.00;99699.97;5068556;28;20606;-75
2022/01/21 10:54:30;;;;;;;4.17;3.40;;;;;;;3.79;100.00;99701.66;5066950;28;20228;-74
2022/01/21 10:57:24;;;;;;;4.60;3.67;;;;;;;3.80;100.00;99694.06;5068697;28;20226;-72
2022/01/21 10:59:55;;;;;;;3.80;3.60;;;;;;;3.72;100.00;99694.91;5063536;28;20200;-73
2022/01/21 11:02:40;;;;;;;5.13;4.63;;;;;;;3.66;100.00;99700.78;5070798;28;20200;-72
2022/01/21 11:05:14;;;;;;;5.27;4.37;;;;;;;3.65;100.00;99705.00;5067426;28;20200;-73
2022/01/21 11:07:56;;;;;;;5.17;4.23;;;;;;;3.60;100.00;99693.16;5071484;28;20306;-73
2022/01/21 11:10:45;;;;;;;4.23;2.90;;;;;;;3.64;100.00;99697.41;5071278;28;21975;-73
2022/01/21 11:13:34;;;;;;;4.57;3.27;;;;;;;3.60;100.00;99691.47;5070029;28;20212;-75
2022/01/21 11:16:08;;;;;;;4.10;3.77;;;;;;;3.62;100.00;99694.00;5068241;28;20200;-74
2022/01/21 11:18:50;;;;;;;2.10;2.00;;;;;;;3.63;100.00;99695.72;5069331;28;20211;-74
2022/01/21 11:21:17;;;;;;;13.33;7.00;;;;;;;3.70;100.00;99692.34;5072222;28;20564;-73
2022/01/21 11:23:44;;;;;;;3.23;3.03;;;;;;;3.73;100.00;99692.34;5071117;28;20258;-73
2022/01/21 11:26:16;;;;;;;2.93;2.80;;;;;;;3.78;100.00;99680.50;5072071;28;20684;-74
2022/01/21 11:28:49;;;;;;;2.50;2.40;;;;;;;3.78;100.00;99675.44;5070375;28;20764;-73
2022/01/21 11:31:17;;;;;;;3.77;2.50;;;;;;;3.84;100.00;99678.00;5068050;28;20291;-68
2022/01/21 11:33:45;;;;;;;3.40;2.37;;;;;;;3.87;99.19;99675.47;5062020;28;20291;-68
2022/01/21 11:36:12;;;;;;;2.70;2.50;;;;;;;3.93;99.02;99672.09;5068590;28;20540;-68
2022/01/21 11:38:43;;;;;;;2.10;2.00;;;;;;;4.02;98.04;99674.63;5068387;28;20656;-68
2022/01/21 11:41:10;;;;;;;2.73;2.63;;;;;;;4.08;98.24;99665.34;5069408;28;20204;-71
2022/01/21 11:43:45;;;;;;;2.17;2.07;;;;;;;4.16;97.11;99671.28;5067282;28;20247;-69
2022/01/21 11:46:36;;;;;;;1.90;1.80;;;;;;;4.17;96.05;99667.00;5068341;28;20210;-69
2022/01/21 11:49:09;;;;;;;2.70;1.50;;;;;;;4.09;95.68;99666.19;5069499;28;20216;-70
2022/01/21 11:51:37;;;;;;;2.87;2.60;;;;;;;4.13;94.16;99668.75;5069971;28;20626;-71
2022/01/21 11:54:05;;;;;;;3.13;2.93;;;;;;;4.12;94.31;99663.66;5068434;28;20297;-69
2022/01/21 11:56:42;;;;;;;2.90;2.20;;;;;;;4.16;95.49;99663.66;5068752;28;20287;-68
2022/01/21 11:59:15;;;;;;;2.73;1.70;;;;;;;4.21;93.33;99661.09;5067691;28;20668;-71
2022/01/21 12:01:48;;;;;;;3.72;1.77;;;;;;;4.30;92.63;99657.72;5064542;28;20441;-71
2022/01/21 12:04:36;;;;;;;1.90;1.80;;;;;;;4.42;91.63;99656.03;5066332;28;20641;-70
2022/01/21 12:07:04;;;;;;;5.00;2.37;;;;;;;4.44;89.13;99653.47;5064353;28;20218;-69
2022/01/21 12:09:55;;;;;;;3.23;3.00;;;;;;;4.43;88.68;99661.91;5063464;28;20324;-71
2022/01/21 12:12:22;;;;;;;10.93;3.00;;;;;;;4.40;89.33;99655.16;5066907;28;20319;-70
2022/01/21 12:14:54;;;;;;;3.77;3.47;;;;;;;4.34;87.43;99651.78;5068382;28;20212;-72